createdAt,value
2023-05-02T00:01:33.889Z,11.29
2023-05-02T00:04:03.809Z,11.24
2023-05-02T00:06:34.054Z,11.20
2023-05-02T00:09:06.547Z,11.15
2023-05-02T00:11:36.290Z,11.10
2023-05-02T00:14:05.993Z,11.04
2023-05-02T00:16:35.745Z,10.98
2023-05-02T00:19:05.495Z,10.94
2023-05-02T00:21:35.956Z,10.92
2023-05-02T00:24:09.087Z,10.91
2023-05-02T00:26:38.824Z,10.92
2023-05-02T00:29:08.976Z,10.93
2023-05-02T00:31:38.711Z,10.93
2023-05-02T00:34:08.440Z,10.95
2023-05-02T00:36:38.124Z,10.96
2023-05-02T00:39:11.008Z,10.98
2023-05-02T00:41:40.734Z,10.99
2023-05-02T00:44:10.424Z,11.01
2023-05-02T00:46:40.672Z,11.03
2023-05-02T00:49:10.417Z,11.02
2023-05-02T00:51:40.097Z,11.05
2023-05-02T00:54:12.365Z,11.07
2023-05-02T00:56:42.324Z,11.08
2023-05-02T00:59:13.292Z,11.09
2023-05-02T01:01:53.720Z,11.08
2023-05-02T01:04:34.907Z,11.11
2023-05-02T01:07:14.089Z,11.12
2023-05-02T01:09:56.541Z,11.12
2023-05-02T01:12:30.833Z,11.12
2023-05-02T01:15:01.928Z,11.08
2023-05-02T01:17:35.212Z,11.07
2023-05-02T01:20:08.020Z,11.02
2023-05-02T01:22:38.621Z,11.02
2023-05-02T01:25:20.366Z,10.99
2023-05-02T01:27:57.577Z,10.97
2023-05-02T01:30:32.560Z,10.96
2023-05-02T01:33:03.293Z,10.97
2023-05-02T01:35:33.962Z,10.96
2023-05-02T01:38:04.347Z,10.95
2023-05-02T01:40:34.839Z,10.96
2023-05-02T01:43:05.841Z,10.94
2023-05-02T01:45:39.364Z,10.95
2023-05-02T01:48:09.730Z,10.95
2023-05-02T01:50:40.549Z,10.93
2023-05-02T01:53:13.877Z,10.91
2023-05-02T01:55:45.251Z,10.89
2023-05-02T01:58:17.240Z,10.89
2023-05-02T02:00:50.370Z,10.84
2023-05-02T02:03:21.133Z,10.81
2023-05-02T02:05:51.727Z,10.79
2023-05-02T02:08:21.554Z,10.78
2023-05-02T02:10:59.691Z,10.78
2023-05-02T02:13:36.220Z,10.78
2023-05-02T02:16:10.408Z,10.79
2023-05-02T02:18:41.836Z,10.77
2023-05-02T02:21:13.517Z,10.77
2023-05-02T02:23:44.349Z,10.78
2023-05-02T02:26:15.563Z,10.75
2023-05-02T02:28:45.690Z,10.76
2023-05-02T02:31:17.990Z,10.77
2023-05-02T02:33:47.877Z,10.76
2023-05-02T02:36:30.439Z,10.77
2023-05-02T02:39:07.825Z,10.77
2023-05-02T02:41:42.761Z,10.75
2023-05-02T02:44:20.723Z,10.78
2023-05-02T02:47:03.847Z,10.79
2023-05-02T02:49:39.219Z,10.79
2023-05-02T02:52:13.774Z,10.81
2023-05-02T02:54:48.034Z,10.80
2023-05-02T02:57:21.284Z,10.78
2023-05-02T02:59:55.839Z,10.79
2023-05-02T03:02:32.243Z,10.80
2023-05-02T03:05:03.647Z,10.78
2023-05-02T03:07:33.561Z,10.80
2023-05-02T03:10:07.084Z,10.81
2023-05-02T03:12:40.169Z,10.82
2023-05-02T03:15:21.381Z,10.83
2023-05-02T03:17:53.740Z,10.84
2023-05-02T03:20:24.104Z,10.83
2023-05-02T03:22:53.859Z,10.83
2023-05-02T03:25:23.514Z,10.82
2023-05-02T03:27:54.280Z,10.83
2023-05-02T03:30:24.075Z,10.81
2023-05-02T03:32:57.267Z,10.79
2023-05-02T03:35:27.383Z,10.78
2023-05-02T03:37:57.067Z,10.78
2023-05-02T03:40:26.694Z,10.77
2023-05-02T03:42:57.864Z,10.75
2023-05-02T03:45:34.215Z,10.77
2023-05-02T03:48:07.114Z,10.76
2023-05-02T03:50:37.728Z,10.77
2023-05-02T03:53:08.076Z,10.76
2023-05-02T03:55:46.668Z,10.77
2023-05-02T03:58:25.423Z,10.79
2023-05-02T04:00:55.820Z,10.80
2023-05-02T04:03:30.097Z,10.77
2023-05-02T04:06:01.825Z,10.79
2023-05-02T04:08:31.663Z,10.79
2023-05-02T04:11:04.825Z,10.81
2023-05-02T04:13:34.682Z,10.79
2023-05-02T04:16:04.860Z,10.78
2023-05-02T04:18:40.522Z,10.78
2023-05-02T04:21:11.320Z,10.78
2023-05-02T04:23:42.382Z,10.77
2023-05-02T04:26:12.141Z,10.74
2023-05-02T04:29:00.973Z,10.75
2023-05-02T04:31:30.809Z,10.77
2023-05-02T04:34:04.465Z,10.77
2023-05-02T04:36:40.260Z,10.79
2023-05-02T04:39:12.613Z,10.78
2023-05-02T04:41:47.831Z,10.78
2023-05-02T04:44:18.421Z,10.76
2023-05-02T04:46:48.792Z,10.71
2023-05-02T04:49:21.114Z,10.70
2023-05-02T04:51:52.152Z,10.70
2023-05-02T04:54:22.845Z,10.67
2023-05-02T04:56:52.624Z,10.63
2023-05-02T04:59:23.807Z,10.61
2023-05-02T05:01:53.962Z,10.58
2023-05-02T05:04:27.776Z,10.56
2023-05-02T05:06:57.716Z,10.52
2023-05-02T05:09:30.109Z,10.53
2023-05-02T05:11:59.909Z,10.51
2023-05-02T05:14:31.511Z,10.51
2023-05-02T05:17:01.564Z,10.52
2023-05-02T05:19:34.758Z,10.55
2023-05-02T05:22:04.897Z,10.57
2023-05-02T05:24:35.290Z,10.58
2023-05-02T05:27:06.291Z,10.61
2023-05-02T05:29:36.299Z,10.61
2023-05-02T05:32:06.387Z,10.61
2023-05-02T05:34:41.132Z,10.62
2023-05-02T05:37:10.913Z,10.62
2023-05-02T05:39:40.808Z,10.62
2023-05-02T05:42:10.779Z,10.62
2023-05-02T05:44:41.801Z,10.64
2023-05-02T05:47:12.953Z,10.62
2023-05-02T05:49:45.285Z,10.59
2023-05-02T05:52:15.022Z,10.54
2023-05-02T05:54:44.849Z,10.50
2023-05-02T05:57:14.577Z,10.46
2023-05-02T05:59:45.797Z,10.45
2023-05-02T06:02:16.994Z,10.43
2023-05-02T06:04:49.669Z,10.43
2023-05-02T06:07:22.756Z,10.46
2023-05-02T06:09:52.468Z,10.48
2023-05-02T06:12:22.135Z,10.48
2023-05-02T06:14:52.794Z,10.52
2023-05-02T06:17:23.476Z,10.53
2023-05-02T06:19:55.909Z,10.54
2023-05-02T06:22:25.612Z,10.55
2023-05-02T06:24:56.262Z,10.56
2023-05-02T06:27:26.039Z,10.52
2023-05-02T06:29:55.983Z,10.52
2023-05-02T06:32:26.466Z,10.55
2023-05-02T06:34:58.825Z,10.59
2023-05-02T06:37:28.807Z,10.60
2023-05-02T06:39:58.708Z,10.61
2023-05-02T06:42:28.660Z,10.62
2023-05-02T06:44:58.792Z,10.64
2023-05-02T06:47:29.091Z,10.67
2023-05-02T06:50:01.850Z,10.68
2023-05-02T06:52:31.860Z,10.73
2023-05-02T06:55:01.454Z,10.78
2023-05-02T06:57:31.248Z,10.84
2023-05-02T07:00:01.524Z,10.87
2023-05-02T07:02:31.610Z,10.92
2023-05-02T07:05:03.912Z,10.92
2023-05-02T07:07:33.700Z,10.93
2023-05-02T07:10:04.234Z,10.92
2023-05-02T07:12:34.052Z,10.97
2023-05-02T07:15:03.830Z,10.99
2023-05-02T07:17:33.641Z,11.02
2023-05-02T07:20:06.392Z,11.00
2023-05-02T07:22:36.131Z,11.03
2023-05-02T07:25:06.774Z,11.03
2023-05-02T07:27:36.586Z,11.01
2023-05-02T07:30:07.195Z,11.01
2023-05-02T07:32:37.230Z,10.98
2023-05-02T07:35:10.271Z,10.98
2023-05-02T07:37:40.669Z,10.97
2023-05-02T07:40:12.229Z,10.96
2023-05-02T07:42:42.251Z,10.93
2023-05-02T07:45:12.770Z,10.89
2023-05-02T07:47:42.468Z,10.77
2023-05-02T07:50:14.995Z,10.70
2023-05-02T07:52:44.944Z,10.67
2023-05-02T07:55:15.320Z,10.62
2023-05-02T07:57:45.120Z,10.58
2023-05-02T08:00:16.430Z,10.53
2023-05-02T08:02:46.453Z,10.51
2023-05-02T08:05:19.030Z,10.49
2023-05-02T08:07:48.973Z,10.47
2023-05-02T08:10:18.709Z,10.42
2023-05-02T08:12:48.426Z,10.39
2023-05-02T08:15:18.158Z,10.37
2023-05-02T08:17:47.973Z,10.36
2023-05-02T08:20:20.417Z,10.32
2023-05-02T08:22:50.577Z,10.31
2023-05-02T08:25:20.307Z,10.31
2023-05-02T08:27:50.026Z,10.32
2023-05-02T08:30:19.863Z,10.32
2023-05-02T08:32:49.564Z,10.34
2023-05-02T08:35:21.920Z,10.38
2023-05-02T08:37:51.728Z,10.43
2023-05-02T08:40:33.610Z,10.45
2023-05-02T08:43:10.937Z,10.47
2023-05-02T08:45:43.836Z,10.57
2023-05-02T08:48:17.041Z,10.59
2023-05-02T08:50:49.775Z,10.72
2023-05-02T08:53:21.203Z,10.66
2023-05-02T08:55:51.668Z,10.62
2023-05-02T08:58:21.341Z,10.47
2023-05-02T09:00:52.270Z,10.38
2023-05-02T09:03:29.698Z,10.30
2023-05-02T09:06:07.643Z,10.23
2023-05-02T09:08:37.690Z,10.07
2023-05-02T09:11:08.109Z,9.98
2023-05-02T09:13:39.055Z,9.95
2023-05-02T09:16:10.246Z,9.87
2023-05-02T09:18:43.350Z,9.78
2023-05-02T09:21:20.499Z,9.77
2023-05-02T09:23:52.217Z,9.75
2023-05-02T09:26:23.532Z,9.72
2023-05-02T09:28:54.615Z,9.75
2023-05-02T09:31:49.930Z,9.76
2023-05-02T09:34:17.307Z,9.70
2023-05-02T09:36:51.452Z,9.64
2023-05-02T09:39:25.535Z,9.66
2023-05-02T09:41:55.800Z,9.67
2023-05-02T09:44:27.571Z,9.69
2023-05-02T09:46:59.152Z,9.71
2023-05-02T09:49:45.034Z,9.73
2023-05-02T09:52:20.165Z,9.79
2023-05-02T09:54:51.008Z,9.79
2023-05-02T09:57:21.107Z,9.79
2023-05-02T09:59:57.911Z,9.80
2023-05-02T10:02:28.225Z,9.84
2023-05-02T10:05:00.395Z,9.89
2023-05-02T10:07:33.489Z,9.97
2023-05-02T10:10:05.136Z,10.03
2023-05-02T10:12:36.163Z,10.12
2023-05-02T10:15:07.508Z,10.22
2023-05-02T10:17:43.912Z,10.32
2023-05-02T10:20:17.223Z,10.38
2023-05-02T10:22:50.862Z,10.52
2023-05-02T10:25:20.646Z,10.60
2023-05-02T10:27:50.882Z,10.71
2023-05-02T10:30:20.583Z,10.87
2023-05-02T10:32:51.265Z,11.03
2023-05-02T10:35:21.250Z,11.22
2023-05-02T10:37:53.704Z,11.03
2023-05-02T10:40:23.496Z,11.33
2023-05-02T10:42:53.963Z,11.30
2023-05-02T10:45:37.358Z,11.55
2023-05-02T10:48:19.064Z,11.72
2023-05-02T10:50:51.388Z,11.84
2023-05-02T10:53:37.368Z,11.90
2023-05-02T10:56:18.290Z,11.87
2023-05-02T10:58:49.027Z,11.91
2023-05-02T11:01:40.549Z,11.83
2023-05-02T11:04:12.150Z,11.68
2023-05-02T11:07:11.791Z,11.77
2023-05-02T11:09:44.071Z,11.77
2023-05-02T11:12:13.805Z,11.76
2023-05-02T11:14:52.770Z,11.75
2023-05-02T11:17:22.874Z,11.71
2023-05-02T11:20:25.149Z,11.72
2023-05-02T11:22:55.546Z,11.74
2023-05-02T11:25:52.071Z,11.73
2023-05-02T11:28:43.370Z,11.73
2023-05-02T11:31:48.168Z,11.70
2023-05-02T11:34:17.984Z,11.71
2023-05-02T11:36:47.658Z,11.78
2023-05-02T11:39:23.151Z,11.76
2023-05-02T11:41:55.446Z,11.75
2023-05-02T11:44:25.231Z,11.78
2023-05-02T11:46:55.944Z,11.85
2023-05-02T11:49:25.839Z,11.87
2023-05-02T11:51:55.592Z,11.97
2023-05-02T11:54:25.375Z,12.07
2023-05-02T11:56:57.764Z,12.18
2023-05-02T11:59:27.989Z,12.40
2023-05-02T12:01:58.262Z,12.58
2023-05-02T12:04:28.346Z,12.78
2023-05-02T12:06:58.565Z,12.88
2023-05-02T12:09:28.248Z,12.96
2023-05-02T12:12:02.256Z,13.06
2023-05-02T12:14:33.617Z,13.13
2023-05-02T12:17:03.975Z,13.10
2023-05-02T12:19:33.801Z,13.19
2023-05-02T12:22:03.568Z,13.28
2023-05-02T12:24:33.849Z,13.36
2023-05-02T12:27:16.275Z,13.42
2023-05-02T12:29:47.385Z,13.62
2023-05-02T12:32:18.014Z,13.78
2023-05-02T12:34:49.389Z,13.81
2023-05-02T12:37:25.597Z,13.76
2023-05-02T12:39:55.998Z,13.73
2023-05-02T12:42:29.020Z,13.63
2023-05-02T12:44:58.686Z,13.57
2023-05-02T12:47:28.645Z,13.48
2023-05-02T12:50:00.773Z,13.52
2023-05-02T12:52:57.615Z,13.50
2023-05-02T12:55:29.470Z,13.60
2023-05-02T12:58:05.828Z,13.61
2023-05-02T13:00:37.719Z,13.65
2023-05-02T13:03:08.116Z,13.64
2023-05-02T13:05:38.140Z,13.56
2023-05-02T13:08:08.786Z,13.52
2023-05-02T13:10:38.404Z,13.56
2023-05-02T13:13:10.695Z,13.50
2023-05-02T13:15:40.361Z,13.41
2023-05-02T13:18:10.195Z,13.30
2023-05-02T13:20:40.075Z,13.24
2023-05-02T13:23:09.808Z,13.21
2023-05-02T13:25:39.709Z,13.25
2023-05-02T13:28:12.020Z,13.35
2023-05-02T13:30:41.901Z,13.53
2023-05-02T13:33:11.646Z,13.62
2023-05-02T13:35:41.527Z,13.70
2023-05-02T13:38:11.182Z,13.73
2023-05-02T13:40:40.867Z,13.92
2023-05-02T13:43:13.124Z,13.89
2023-05-02T13:45:42.868Z,13.88
2023-05-02T13:48:12.548Z,13.83
2023-05-02T13:50:42.253Z,13.76
2023-05-02T13:53:11.903Z,13.74
2023-05-02T13:55:41.894Z,13.72
2023-05-02T13:58:14.184Z,13.66
2023-05-02T14:00:43.944Z,13.62
2023-05-02T14:03:14.028Z,13.57
2023-05-02T14:05:43.928Z,13.49
2023-05-02T14:08:18.445Z,13.53
2023-05-02T14:10:48.320Z,13.59
2023-05-02T14:13:20.591Z,13.68
2023-05-02T14:15:50.397Z,13.75
2023-05-02T14:18:20.118Z,13.87
2023-05-02T14:20:49.899Z,13.92
2023-05-02T14:23:19.586Z,14.03
2023-05-02T14:25:49.314Z,14.07
2023-05-02T14:28:21.534Z,14.20
2023-05-02T14:30:51.536Z,14.30
2023-05-02T14:33:21.220Z,14.39
2023-05-02T14:35:51.676Z,14.51
2023-05-02T14:38:21.720Z,14.55
2023-05-02T14:40:51.489Z,14.70
2023-05-02T14:43:24.070Z,14.74
2023-05-02T14:45:53.838Z,14.77
2023-05-02T14:48:23.488Z,14.90
2023-05-02T14:50:53.845Z,14.92
2023-05-02T14:53:23.749Z,14.89
2023-05-02T14:55:53.444Z,14.87
2023-05-02T14:58:25.749Z,14.82
2023-05-02T15:00:55.637Z,14.83
2023-05-02T15:03:25.543Z,14.85
2023-05-02T15:05:55.380Z,14.82
2023-05-02T15:08:25.326Z,14.87
2023-05-02T15:10:55.966Z,14.87
2023-05-02T15:13:28.256Z,14.93
2023-05-02T15:15:58.035Z,14.98
2023-05-02T15:18:27.737Z,15.00
2023-05-02T15:20:57.374Z,15.03
2023-05-02T15:23:27.120Z,15.05
2023-05-02T15:25:56.802Z,15.14
2023-05-02T15:28:29.032Z,15.26
2023-05-02T15:30:58.752Z,15.35
2023-05-02T15:33:28.833Z,15.47
2023-05-02T15:35:59.788Z,15.52
2023-05-02T15:38:29.584Z,15.54
2023-05-02T15:41:00.077Z,15.56
2023-05-02T15:43:32.427Z,15.46
2023-05-02T15:46:03.106Z,15.37
2023-05-02T15:48:35.003Z,15.43
2023-05-02T15:51:05.516Z,15.51
2023-05-02T15:53:39.413Z,15.50
2023-05-02T15:56:10.932Z,15.49
2023-05-02T15:58:43.442Z,15.40
2023-05-02T16:01:13.222Z,15.39
2023-05-02T16:03:43.040Z,15.32
2023-05-02T16:06:12.859Z,15.38
2023-05-02T16:08:42.590Z,15.41
2023-05-02T16:11:12.269Z,15.47
2023-05-02T16:13:44.834Z,15.46
2023-05-02T16:16:14.747Z,15.45
2023-05-02T16:18:44.585Z,15.41
2023-05-02T16:21:14.621Z,15.33
2023-05-02T16:23:44.316Z,15.28
2023-05-02T16:26:14.134Z,15.18
2023-05-02T16:28:46.376Z,15.03
2023-05-02T16:31:16.209Z,14.84
2023-05-02T16:33:45.942Z,14.83
2023-05-02T16:36:15.592Z,14.92
2023-05-02T16:38:45.213Z,15.33
2023-05-02T16:41:14.845Z,15.03
2023-05-02T16:43:47.135Z,14.86
2023-05-02T16:46:17.116Z,14.64
2023-05-02T16:48:47.077Z,14.45
2023-05-02T16:51:16.765Z,14.39
2023-05-02T16:53:46.480Z,14.38
2023-05-02T16:56:16.333Z,14.34
2023-05-02T16:58:48.597Z,14.36
2023-05-02T17:01:18.557Z,14.36
2023-05-02T17:03:48.272Z,14.26
2023-05-02T17:06:18.043Z,14.05
2023-05-02T17:08:47.701Z,14.09
2023-05-02T17:11:17.579Z,14.12
2023-05-02T17:13:50.026Z,14.23
2023-05-02T17:16:20.690Z,14.24
2023-05-02T17:18:50.911Z,14.27
2023-05-02T17:21:20.613Z,14.24
2023-05-02T17:24:03.257Z,14.09
2023-05-02T17:26:33.164Z,14.03
2023-05-02T17:32:08.385Z,14.00
2023-05-02T17:34:38.973Z,13.89
2023-05-02T17:37:08.627Z,13.95
2023-05-02T17:39:38.350Z,14.07
2023-05-02T17:42:08.164Z,14.21
2023-05-02T17:44:40.455Z,14.41
2023-05-02T17:47:10.169Z,14.77
2023-05-02T17:49:39.849Z,14.68
2023-05-02T17:52:09.503Z,14.81
2023-05-02T17:54:39.182Z,14.93
2023-05-02T17:57:10.160Z,15.19
2023-05-02T17:59:44.417Z,15.45
2023-05-02T18:02:15.775Z,15.72
2023-05-02T18:04:46.409Z,15.85
2023-05-02T18:07:16.180Z,15.68
2023-05-02T18:09:46.139Z,15.43
2023-05-02T18:12:15.819Z,15.10
2023-05-02T18:14:49.160Z,14.60
2023-05-02T18:17:20.636Z,14.33
2023-05-02T18:19:51.002Z,14.11
2023-05-02T18:22:21.835Z,13.88
2023-05-02T18:24:53.544Z,13.69
2023-05-02T18:27:23.457Z,13.58
2023-05-02T18:29:55.890Z,13.49
2023-05-02T18:32:26.214Z,13.31
2023-05-02T18:34:56.636Z,13.16
2023-05-02T18:37:31.261Z,13.03
2023-05-02T18:40:01.001Z,12.90
2023-05-02T18:42:30.687Z,12.78
2023-05-02T18:45:03.174Z,12.64
2023-05-02T18:47:33.819Z,12.56
2023-05-02T18:50:05.007Z,12.44
2023-05-02T18:52:34.698Z,12.33
2023-05-02T18:55:05.185Z,12.25
2023-05-02T18:57:35.267Z,12.17
2023-05-02T19:00:09.255Z,12.10
2023-05-02T19:02:39.232Z,12.00
2023-05-02T19:05:09.388Z,11.94
2023-05-02T19:07:39.285Z,11.84
2023-05-02T19:10:11.199Z,11.75
2023-05-02T19:12:41.909Z,11.68
2023-05-02T19:15:14.956Z,11.58
2023-05-02T19:17:45.259Z,11.44
2023-05-02T19:20:15.493Z,11.37
2023-05-02T19:22:46.226Z,11.26
2023-05-02T19:25:16.158Z,11.18
2023-05-02T19:27:47.849Z,11.07
2023-05-02T19:30:21.726Z,10.98
2023-05-02T19:32:51.856Z,10.86
2023-05-02T19:35:22.058Z,10.83
2023-05-02T19:37:51.713Z,10.73
2023-05-02T19:40:21.566Z,10.68
2023-05-02T19:42:51.248Z,10.55
2023-05-02T19:45:23.641Z,10.47
2023-05-02T19:47:53.756Z,10.40
2023-05-02T19:50:23.546Z,10.31
2023-05-02T19:52:53.336Z,10.23
2023-05-02T19:55:23.282Z,10.16
2023-05-02T19:57:52.931Z,10.09
2023-05-02T20:00:25.599Z,10.01
2023-05-02T20:02:55.485Z,9.94
2023-05-02T20:05:25.287Z,9.87
2023-05-02T20:07:54.931Z,9.81
2023-05-02T20:10:24.574Z,9.71
2023-05-02T20:12:54.241Z,9.64
2023-05-02T20:15:26.853Z,9.57
2023-05-02T20:17:58.376Z,9.53
2023-05-02T20:20:28.197Z,9.46
2023-05-02T20:22:58.304Z,9.38
2023-05-02T20:25:28.770Z,9.30
2023-05-02T20:27:58.440Z,9.25
2023-05-02T20:30:30.799Z,9.21
2023-05-02T20:33:10.553Z,9.16
2023-05-02T20:35:45.066Z,9.12
2023-05-02T20:38:17.815Z,9.06
2023-05-02T20:40:47.753Z,9.02
2023-05-02T20:43:18.958Z,8.96
2023-05-02T20:45:51.735Z,8.89
2023-05-02T20:48:21.428Z,8.82
2023-05-02T20:50:57.591Z,8.77
2023-05-02T20:53:27.313Z,8.71
2023-05-02T20:55:56.978Z,8.61
2023-05-02T20:58:27.004Z,8.55
2023-05-02T21:00:59.247Z,8.50
2023-05-02T21:03:30.498Z,8.42
2023-05-02T21:06:01.225Z,8.36
2023-05-02T21:08:31.209Z,8.30
2023-05-02T21:11:01.230Z,8.25
2023-05-02T21:13:30.966Z,8.19
2023-05-02T21:16:03.405Z,8.16
2023-05-02T21:18:33.070Z,8.09
2023-05-02T21:21:02.736Z,8.02
2023-05-02T21:23:32.448Z,7.98
2023-05-02T21:26:02.154Z,7.92
2023-05-02T21:28:31.819Z,7.88
2023-05-02T21:31:04.224Z,7.83
2023-05-02T21:33:33.864Z,7.78
2023-05-02T21:36:03.553Z,7.74
2023-05-02T21:38:33.263Z,7.67
2023-05-02T21:41:05.035Z,7.63
2023-05-02T21:43:37.520Z,7.59
2023-05-02T21:46:09.884Z,7.55
2023-05-02T21:48:39.870Z,7.50
2023-05-02T21:51:10.144Z,7.44
2023-05-02T21:53:40.281Z,7.37
2023-05-02T21:56:11.136Z,7.30
2023-05-02T21:58:40.840Z,7.26
2023-05-02T22:01:13.484Z,7.19
2023-05-02T22:03:43.253Z,7.14
2023-05-02T22:06:13.189Z,7.09
2023-05-02T22:08:42.971Z,7.04
2023-05-02T22:11:12.643Z,6.99
2023-05-02T22:13:42.310Z,6.94
2023-05-02T22:16:14.802Z,6.90
2023-05-02T22:18:45.434Z,6.83
2023-05-02T22:21:16.073Z,6.76
2023-05-02T22:23:45.788Z,6.75
2023-05-02T22:26:15.536Z,6.71
2023-05-02T22:28:45.191Z,6.67
2023-05-02T22:31:18.016Z,6.63
2023-05-02T22:33:50.064Z,6.62
2023-05-02T22:36:20.540Z,6.56
2023-05-02T22:38:50.184Z,6.50
2023-05-02T22:41:19.813Z,6.44
2023-05-02T22:43:49.459Z,6.42
2023-05-02T22:46:21.760Z,6.37
2023-05-02T22:48:53.616Z,6.31
2023-05-02T22:51:23.550Z,6.29
2023-05-02T22:53:54.175Z,6.25
2023-05-02T22:56:24.641Z,6.19
2023-05-02T22:58:54.260Z,6.13
2023-05-02T23:01:26.677Z,6.10
2023-05-02T23:03:56.704Z,6.05
2023-05-02T23:06:28.966Z,6.02
2023-05-02T23:08:58.823Z,5.96
2023-05-02T23:11:29.294Z,5.87
2023-05-02T23:13:59.080Z,5.86
2023-05-02T23:16:31.364Z,5.82
2023-05-02T23:19:01.112Z,5.76
2023-05-02T23:21:30.806Z,5.68
2023-05-02T23:24:00.552Z,5.67
2023-05-02T23:26:30.648Z,5.64
2023-05-02T23:29:00.258Z,5.63
2023-05-02T23:31:32.779Z,5.55
2023-05-02T23:34:03.094Z,5.53
2023-05-02T23:36:34.308Z,5.48
2023-05-02T23:39:05.547Z,5.43
2023-05-02T23:41:35.593Z,5.36
2023-05-02T23:44:05.252Z,5.31
2023-05-02T23:46:37.559Z,5.27
2023-05-02T23:49:07.319Z,5.25
2023-05-02T23:51:37.835Z,5.20
2023-05-02T23:54:07.617Z,5.16
2023-05-02T23:56:37.295Z,5.12
2023-05-02T23:59:07.277Z,5.05
